Terminal Aerodrome Forecast
Issued by NWS Grand Rapids, MI

Home | Current Version | Previous Version | Text Only | Print | Product List | Glossary On
Versions: 1 2 3 4 5 6 7 8 9 10 11 12 13 14 15 16 17 18
000
FTUS43 KGRR 291740
TAFGRR
TAF
KGRR 291740Z 2918/3018 08009KT P6SM VCSH BKN050
     FM300600 06007KT 5SM -SHRA BR OVC025
     FM301600 08007KT P6SM VCTS BKN035CB=

USA.gov is the U.S. government's official web portal to all federal, state and local government web resources and services.